sensor_id;sensor_type;location;lat;lon;timestamp;pressure;altitude;pressure_sealevel;temperature;humidity
70370;BME280;57790;51.356;-2.906;2023-04-19T00:00:40;102713.00;;;11.18;100.00
70370;BME280;57790;51.356;-2.906;2023-04-19T00:03:40;102713.13;;;11.17;100.00
70370;BME280;57790;51.356;-2.906;2023-04-19T00:06:41;102718.44;;;11.17;100.00
70370;BME280;57790;51.356;-2.906;2023-04-19T00:09:41;102721.09;;;11.17;100.00
70370;BME280;57790;51.356;-2.906;2023-04-19T00:12:42;102716.00;;;11.14;100.00
70370;BME280;57790;51.356;-2.906;2023-04-19T00:15:42;102720.59;;;11.12;100.00
70370;BME280;57790;51.356;-2.906;2023-04-19T00:18:43;102716.25;;;11.11;100.00
70370;BME280;57790;51.356;-2.906;2023-04-19T00:21:43;102714.53;;;11.10;100.00
70370;BME280;57790;51.356;-2.906;2023-04-19T00:24:44;102718.28;;;11.07;100.00
70370;BME280;57790;51.356;-2.906;2023-04-19T00:27:44;102710.69;;;11.02;100.00
70370;BME280;57790;51.356;-2.906;2023-04-19T00:30:45;102710.81;;;11.01;100.00
70370;BME280;57790;51.356;-2.906;2023-04-19T00:33:45;102710.94;;;10.99;100.00
70370;BME280;57790;51.356;-2.906;2023-04-19T00:36:45;102711.84;;;10.98;100.00
70370;BME280;57790;51.356;-2.906;2023-04-19T00:39:46;102711.00;;;10.98;100.00
70370;BME280;57790;51.356;-2.906;2023-04-19T00:42:46;102700.63;;;10.95;100.00
70370;BME280;57790;51.356;-2.906;2023-04-19T00:45:47;102699.19;;;10.91;100.00
70370;BME280;57790;51.356;-2.906;2023-04-19T00:48:48;102687.97;;;10.87;100.00
70370;BME280;57790;51.356;-2.906;2023-04-19T00:51:50;102696.13;;;10.84;100.00
70370;BME280;57790;51.356;-2.906;2023-04-19T00:54:50;102690.09;;;10.82;100.00
70370;BME280;57790;51.356;-2.906;2023-04-19T00:57:51;102684.44;;;10.76;100.00
70370;BME280;57790;51.356;-2.906;2023-04-19T01:00:51;102683.81;;;10.72;100.00
70370;BME280;57790;51.356;-2.906;2023-04-19T01:03:52;102689.84;;;10.74;100.00
70370;BME280;57790;51.356;-2.906;2023-04-19T01:06:52;102684.53;;;10.74;100.00
70370;BME280;57790;51.356;-2.906;2023-04-19T01:09:53;102674.66;;;10.76;100.00
70370;BME280;57790;51.356;-2.906;2023-04-19T01:12:53;102669.78;;;10.70;100.00
70370;BME280;57790;51.356;-2.906;2023-04-19T01:15:54;102672.44;;;10.70;100.00
70370;BME280;57790;51.356;-2.906;2023-04-19T01:18:55;102667.38;;;10.67;100.00
70370;BME280;57790;51.356;-2.906;2023-04-19T01:21:56;102666.91;;;10.62;100.00
70370;BME280;57790;51.356;-2.906;2023-04-19T01:24:57;102671.34;;;10.61;100.00
70370;BME280;57790;51.356;-2.906;2023-04-19T01:27:58;102669.06;;;10.57;100.00
70370;BME280;57790;51.356;-2.906;2023-04-19T01:30:58;102670.75;;;10.58;100.00
70370;BME280;57790;51.356;-2.906;2023-04-19T01:33:58;102679.66;;;10.57;100.00
70370;BME280;57790;51.356;-2.906;2023-04-19T01:36:59;102665.16;;;10.50;100.00
70370;BME280;57790;51.356;-2.906;2023-04-19T01:39:59;102661.66;;;10.49;100.00
70370;BME280;57790;51.356;-2.906;2023-04-19T01:43:00;102669.50;;;10.51;100.00
70370;BME280;57790;51.356;-2.906;2023-04-19T01:46:00;102670.81;;;10.45;100.00
70370;BME280;57790;51.356;-2.906;2023-04-19T01:49:01;102674.63;;;10.41;100.00
70370;BME280;57790;51.356;-2.906;2023-04-19T01:52:01;102671.78;;;10.44;100.00
70370;BME280;57790;51.356;-2.906;2023-04-19T01:55:01;102672.38;;;10.48;100.00
70370;BME280;57790;51.356;-2.906;2023-04-19T01:58:02;102665.88;;;10.52;100.00
70370;BME280;57790;51.356;-2.906;2023-04-19T02:01:02;102661.53;;;10.51;100.00
70370;BME280;57790;51.356;-2.906;2023-04-19T02:04:03;102661.44;;;10.52;100.00
70370;BME280;57790;51.356;-2.906;2023-04-19T02:07:03;102656.00;;;10.54;100.00
70370;BME280;57790;51.356;-2.906;2023-04-19T02:10:04;102653.88;;;10.59;100.00
70370;BME280;57790;51.356;-2.906;2023-04-19T02:13:05;102656.72;;;10.56;100.00
70370;BME280;57790;51.356;-2.906;2023-04-19T02:16:06;102661.44;;;10.52;100.00
70370;BME280;57790;51.356;-2.906;2023-04-19T02:19:06;102655.88;;;10.55;100.00
70370;BME280;57790;51.356;-2.906;2023-04-19T02:22:07;102658.66;;;10.54;100.00
70370;BME280;57790;51.356;-2.906;2023-04-19T02:25:08;102651.06;;;10.49;100.00
70370;BME280;57790;51.356;-2.906;2023-04-19T02:28:08;102643.94;;;10.50;100.00
70370;BME280;57790;51.356;-2.906;2023-04-19T02:31:08;102637.91;;;10.48;100.00
70370;BME280;57790;51.356;-2.906;2023-04-19T02:34:09;102635.50;;;10.45;100.00
70370;BME280;57790;51.356;-2.906;2023-04-19T02:37:09;102637.19;;;10.46;100.00
70370;BME280;57790;51.356;-2.906;2023-04-19T02:40:10;102629.34;;;10.44;100.00
70370;BME280;57790;51.356;-2.906;2023-04-19T02:43:10;102623.81;;;10.47;100.00
70370;BME280;57790;51.356;-2.906;2023-04-19T02:46:11;102627.66;;;10.43;100.00
70370;BME280;57790;51.356;-2.906;2023-04-19T02:49:11;102620.75;;;10.40;100.00
70370;BME280;57790;51.356;-2.906;2023-04-19T02:52:12;102626.81;;;10.42;100.00
70370;BME280;57790;51.356;-2.906;2023-04-19T02:55:12;102627.66;;;10.43;100.00
70370;BME280;57790;51.356;-2.906;2023-04-19T02:58:12;102622.47;;;10.41;100.00
70370;BME280;57790;51.356;-2.906;2023-04-19T03:01:13;102624.38;;;10.39;100.00
70370;BME280;57790;51.356;-2.906;2023-04-19T03:04:13;102615.44;;;10.40;100.00
70370;BME280;57790;51.356;-2.906;2023-04-19T03:07:14;102615.44;;;10.40;100.00
70370;BME280;57790;51.356;-2.906;2023-04-19T03:10:14;102613.56;;;10.42;100.00
70370;BME280;57790;51.356;-2.906;2023-04-19T03:13:15;102615.25;;;10.43;100.00
70370;BME280;57790;51.356;-2.906;2023-04-19T03:16:15;102618.84;;;10.42;100.00
70370;BME280;57790;51.356;-2.906;2023-04-19T03:19:15;102609.94;;;10.43;100.00
70370;BME280;57790;51.356;-2.906;2023-04-19T03:22:16;102610.06;;;10.42;100.00
70370;BME280;57790;51.356;-2.906;2023-04-19T03:25:16;102605.59;;;10.42;100.00
70370;BME280;57790;51.356;-2.906;2023-04-19T03:28:17;102619.91;;;10.40;100.00
70370;BME280;57790;51.356;-2.906;2023-04-19T03:31:17;102618.22;;;10.39;100.00
70370;BME280;57790;51.356;-2.906;2023-04-19T03:34:17;102623.41;;;10.40;100.00
70370;BME280;57790;51.356;-2.906;2023-04-19T03:37:18;102621.94;;;10.36;100.00
70370;BME280;57790;51.356;-2.906;2023-04-19T03:40:18;102623.53;;;10.39;100.00
70370;BME280;57790;51.356;-2.906;2023-04-19T03:43:19;102638.69;;;10.37;100.00
70370;BME280;57790;51.356;-2.906;2023-04-19T03:46:19;102629.91;;;10.36;100.00
70370;BME280;57790;51.356;-2.906;2023-04-19T03:49:20;102624.38;;;10.39;100.00
70370;BME280;57790;51.356;-2.906;2023-04-19T03:52:20;102625.34;;;10.38;100.00
70370;BME280;57790;51.356;-2.906;2023-04-19T03:55:21;102630.63;;;10.38;100.00
70370;BME280;57790;51.356;-2.906;2023-04-19T03:58:21;102625.84;;;10.43;100.00
70370;BME280;57790;51.356;-2.906;2023-04-19T04:01:22;102617.16;;;10.41;100.00
70370;BME280;57790;51.356;-2.906;2023-04-19T04:04:23;102623.31;;;10.42;100.00
70370;BME280;57790;51.356;-2.906;2023-04-19T04:07:23;102624.38;;;10.39;100.00
70370;BME280;57790;51.356;-2.906;2023-04-19T04:10:25;102614.53;;;10.41;100.00
70370;BME280;57790;51.356;-2.906;2023-04-19T04:13:25;102617.91;;;10.43;100.00
70370;BME280;57790;51.356;-2.906;2023-04-19T04:16:25;102611.22;;;10.38;100.00
70370;BME280;57790;51.356;-2.906;2023-04-19T04:19:26;102613.75;;;10.39;100.00
70370;BME280;57790;51.356;-2.906;2023-04-19T04:22:26;102615.38;;;10.42;100.00
70370;BME280;57790;51.356;-2.906;2023-04-19T04:25:27;102610.16;;;10.40;100.00
70370;BME280;57790;51.356;-2.906;2023-04-19T04:28:28;102614.72;;;10.38;100.00
70370;BME280;57790;51.356;-2.906;2023-04-19T04:31:28;102619.06;;;10.39;100.00
70370;BME280;57790;51.356;-2.906;2023-04-19T04:34:28;102610.91;;;10.42;100.00
70370;BME280;57790;51.356;-2.906;2023-04-19T04:37:33;102607.50;;;10.40;100.00
70370;BME280;57790;51.356;-2.906;2023-04-19T04:40:34;102615.56;;;10.39;100.00
70370;BME280;57790;51.356;-2.906;2023-04-19T04:43:34;102611.88;;;10.41;100.00
70370;BME280;57790;51.356;-2.906;2023-04-19T04:46:35;102607.50;;;10.40;100.00
70370;BME280;57790;51.356;-2.906;2023-04-19T04:49:35;102607.41;;;10.42;100.00
70370;BME280;57790;51.356;-2.906;2023-04-19T04:52:36;102611.13;;;10.39;100.00
70370;BME280;57790;51.356;-2.906;2023-04-19T04:55:37;102617.25;;;10.40;100.00
70370;BME280;57790;51.356;-2.906;2023-04-19T04:58:37;102618.22;;;10.39;100.00
70370;BME280;57790;51.356;-2.906;2023-04-19T05:01:37;102621.50;;;10.42;100.00
70370;BME280;57790;51.356;-2.906;2023-04-19T05:04:38;102621.94;;;10.36;100.00
70370;BME280;57790;51.356;-2.906;2023-04-19T05:07:38;102626.41;;;10.36;100.00
70370;BME280;57790;51.356;-2.906;2023-04-19T05:10:38;102628.22;;;10.35;100.00
70370;BME280;57790;51.356;-2.906;2023-04-19T05:13:39;102628.22;;;10.35;100.00
70370;BME280;57790;51.356;-2.906;2023-04-19T05:16:40;102626.53;;;10.34;100.00
70370;BME280;57790;51.356;-2.906;2023-04-19T05:19:40;102628.44;;;10.32;100.00
70370;BME280;57790;51.356;-2.906;2023-04-19T05:22:41;102617.84;;;10.32;100.00
70370;BME280;57790;51.356;-2.906;2023-04-19T05:25:41;102626.88;;;10.30;100.00
70370;BME280;57790;51.356;-2.906;2023-04-19T05:28:43;102616.41;;;10.28;100.00
70370;BME280;57790;51.356;-2.906;2023-04-19T05:31:43;102611.81;;;10.30;100.00
70370;BME280;57790;51.356;-2.906;2023-04-19T05:34:43;102610.13;;;10.29;100.00
70370;BME280;57790;51.356;-2.906;2023-04-19T05:37:44;102608.22;;;10.31;100.00
70370;BME280;57790;51.356;-2.906;2023-04-19T05:40:45;102609.06;;;10.32;100.00
70370;BME280;57790;51.356;-2.906;2023-04-19T05:43:45;102612.44;;;10.34;100.00
70370;BME280;57790;51.356;-2.906;2023-04-19T05:46:45;102610.50;;;10.36;100.00
70370;BME280;57790;51.356;-2.906;2023-04-19T05:49:46;102613.75;;;10.39;100.00
70370;BME280;57790;51.356;-2.906;2023-04-19T05:52:46;102609.22;;;10.41;100.00
70370;BME280;57790;51.356;-2.906;2023-04-19T05:55:46;102615.25;;;10.43;100.00
70370;BME280;57790;51.356;-2.906;2023-04-19T05:58:48;102621.41;;;10.44;100.00
70370;BME280;57790;51.356;-2.906;2023-04-19T06:01:48;102628.16;;;10.48;100.00
70370;BME280;57790;51.356;-2.906;2023-04-19T06:04:49;102621.16;;;10.47;100.00
70370;BME280;57790;51.356;-2.906;2023-04-19T06:07:49;102628.03;;;10.50;100.00
70370;BME280;57790;51.356;-2.906;2023-04-19T06:10:50;102633.09;;;10.53;100.00
70370;BME280;57790;51.356;-2.906;2023-04-19T06:13:51;102630.44;;;10.53;100.00
70370;BME280;57790;51.356;-2.906;2023-04-19T06:16:51;102623.34;;;10.53;100.00
70370;BME280;57790;51.356;-2.906;2023-04-19T06:19:53;102614.03;;;10.48;100.00
70370;BME280;57790;51.356;-2.906;2023-04-19T06:22:53;102605.50;;;10.44;100.00
70370;BME280;57790;51.356;-2.906;2023-04-19T06:25:54;102600.19;;;10.44;100.00
70370;BME280;57790;51.356;-2.906;2023-04-19T06:28:54;102596.69;;;10.43;100.00
70370;BME280;57790;51.356;-2.906;2023-04-19T06:31:55;102600.31;;;10.42;100.00
70370;BME280;57790;51.356;-2.906;2023-04-19T06:34:55;102607.50;;;10.40;100.00
70370;BME280;57790;51.356;-2.906;2023-04-19T06:37:55;102600.31;;;10.42;100.00
70370;BME280;57790;51.356;-2.906;2023-04-19T06:40:56;102606.09;;;10.48;100.00
70370;BME280;57790;51.356;-2.906;2023-04-19T06:43:56;102605.25;;;10.47;100.00
70370;BME280;57790;51.356;-2.906;2023-04-19T06:46:56;102609.34;;;10.51;100.00
70370;BME280;57790;51.356;-2.906;2023-04-19T06:49:57;102598.88;;;10.50;100.00
70370;BME280;57790;51.356;-2.906;2023-04-19T06:52:57;102593.31;;;10.53;100.00
70370;BME280;57790;51.356;-2.906;2023-04-19T06:56:01;102595.00;;;10.54;100.00
70370;BME280;57790;51.356;-2.906;2023-04-19T06:59:01;102599.34;;;10.55;100.00
70370;BME280;57790;51.356;-2.906;2023-04-19T07:02:02;102593.97;;;10.56;100.00
70370;BME280;57790;51.356;-2.906;2023-04-19T07:05:02;102598.38;;;10.56;100.00
70370;BME280;57790;51.356;-2.906;2023-04-19T07:08:03;102594.81;;;10.57;100.00
70370;BME280;57790;51.356;-2.906;2023-04-19T07:11:04;102591.66;;;10.63;100.00
70370;BME280;57790;51.356;-2.906;2023-04-19T07:14:05;102585.16;;;10.67;100.00
70370;BME280;57790;51.356;-2.906;2023-04-19T07:17:05;102579.59;;;10.70;100.00
70370;BME280;57790;51.356;-2.906;2023-04-19T07:20:06;102567.09;;;10.72;100.00
70370;BME280;57790;51.356;-2.906;2023-04-19T07:23:06;102573.84;;;10.76;100.00
70370;BME280;57790;51.356;-2.906;2023-04-19T07:26:07;102590.50;;;10.78;100.00
70370;BME280;57790;51.356;-2.906;2023-04-19T07:29:07;102611.34;;;10.83;100.00
70370;BME280;57790;51.356;-2.906;2023-04-19T07:32:08;102618.00;;;10.88;100.00
70370;BME280;57790;51.356;-2.906;2023-04-19T07:35:08;102626.34;;;10.95;100.00
70370;BME280;57790;51.356;-2.906;2023-04-19T07:38:09;102623.56;;;10.96;100.00
70370;BME280;57790;51.356;-2.906;2023-04-19T07:41:09;102619.94;;;10.97;100.00
70370;BME280;57790;51.356;-2.906;2023-04-19T07:44:09;102623.34;;;10.99;100.00
70370;BME280;57790;51.356;-2.906;2023-04-19T07:47:11;102614.63;;;10.97;100.00
70370;BME280;57790;51.356;-2.906;2023-04-19T07:50:11;102608.59;;;10.95;100.00
70370;BME280;57790;51.356;-2.906;2023-04-19T07:53:12;102602.44;;;10.95;100.00
70370;BME280;57790;51.356;-2.906;2023-04-19T07:56:12;102591.00;;;10.94;100.00
70370;BME280;57790;51.356;-2.906;2023-04-19T07:59:13;102604.25;;;10.94;100.00
70370;BME280;57790;51.356;-2.906;2023-04-19T08:02:14;102611.75;;;11.00;100.00
70370;BME280;57790;51.356;-2.906;2023-04-19T08:05:16;102604.66;;;11.01;100.00
70370;BME280;57790;51.356;-2.906;2023-04-19T08:08:16;102615.25;;;11.01;100.00
70370;BME280;57790;51.356;-2.906;2023-04-19T08:11:17;102614.06;;;11.05;100.00
70370;BME280;57790;51.356;-2.906;2023-04-19T08:14:17;102616.09;;;11.01;100.00
70370;BME280;57790;51.356;-2.906;2023-04-19T08:17:17;102614.28;;;11.02;100.00
70370;BME280;57790;51.356;-2.906;2023-04-19T08:20:20;102609.13;;;11.00;100.00
70370;BME280;57790;51.356;-2.906;2023-04-19T08:23:21;102619.47;;;11.03;100.00
70370;BME280;57790;51.356;-2.906;2023-04-19T08:26:21;102622.00;;;11.05;100.00
70370;BME280;57790;51.356;-2.906;2023-04-19T08:29:22;102619.47;;;11.03;100.00
70370;BME280;57790;51.356;-2.906;2023-04-19T08:32:22;102613.44;;;11.01;100.00
70370;BME280;57790;51.356;-2.906;2023-04-19T08:35:23;102620.19;;;11.06;100.00
70370;BME280;57790;51.356;-2.906;2023-04-19T08:38:24;102593.41;;;11.09;100.00
70370;BME280;57790;51.356;-2.906;2023-04-19T08:41:25;102595.47;;;11.05;100.00
70370;BME280;57790;51.356;-2.906;2023-04-19T08:44:27;102587.50;;;11.05;100.00
70370;BME280;57790;51.356;-2.906;2023-04-19T08:47:34;102592.69;;;11.07;100.00
70370;BME280;57790;51.356;-2.906;2023-04-19T08:50:35;102579.91;;;11.00;100.00
70370;BME280;57790;51.356;-2.906;2023-04-19T08:53:36;102578.94;;;11.01;100.00
70370;BME280;57790;51.356;-2.906;2023-04-19T08:56:37;102572.31;;;11.07;100.00
70370;BME280;57790;51.356;-2.906;2023-04-19T08:59:38;102582.94;;;11.07;100.00
70370;BME280;57790;51.356;-2.906;2023-04-19T09:02:51;102584.38;;;11.11;100.00
70370;BME280;57790;51.356;-2.906;2023-04-19T09:05:53;102569.91;;;11.15;100.00
70370;BME280;57790;51.356;-2.906;2023-04-19T09:09:16;102576.19;;;11.14;100.00
70370;BME280;57790;51.356;-2.906;2023-04-19T09:12:16;102575.81;;;11.19;100.00
70370;BME280;57790;51.356;-2.906;2023-04-19T09:15:34;102569.16;;;11.13;100.00
70370;BME280;57790;51.356;-2.906;2023-04-19T09:18:52;102562.66;;;11.17;100.00
70370;BME280;57790;51.356;-2.906;2023-04-19T09:21:54;102563.97;;;11.23;100.00
70370;BME280;57790;51.356;-2.906;2023-04-19T09:24:54;102559.38;;;11.25;100.00
70370;BME280;57790;51.356;-2.906;2023-04-19T09:28:07;102557.69;;;11.24;100.00
70370;BME280;57790;51.356;-2.906;2023-04-19T09:31:11;102567.72;;;11.31;100.00
70370;BME280;57790;51.356;-2.906;2023-04-19T09:34:14;102570.25;;;11.33;100.00
70370;BME280;57790;51.356;-2.906;2023-04-19T09:37:15;102576.16;;;11.37;100.00
70370;BME280;57790;51.356;-2.906;2023-04-19T09:40:25;102576.75;;;11.40;100.00
70370;BME280;57790;51.356;-2.906;2023-04-19T09:43:26;102566.75;;;11.44;100.00
70370;BME280;57790;51.356;-2.906;2023-04-19T09:46:30;102567.34;;;11.47;100.00
70370;BME280;57790;51.356;-2.906;2023-04-19T09:49:31;102565.28;;;11.51;100.00
70370;BME280;57790;51.356;-2.906;2023-04-19T09:52:32;102560.31;;;11.57;100.00
70370;BME280;57790;51.356;-2.906;2023-04-19T09:55:34;102562.09;;;11.57;100.00
70370;BME280;57790;51.356;-2.906;2023-04-19T09:58:36;102561.63;;;11.63;100.00
70370;BME280;57790;51.356;-2.906;2023-04-19T10:01:38;102561.00;;;11.71;100.00
70370;BME280;57790;51.356;-2.906;2023-04-19T10:04:39;102555.44;;;11.74;100.00
70370;BME280;57790;51.356;-2.906;2023-04-19T10:07:41;102553.50;;;11.76;100.00
70370;BME280;57790;51.356;-2.906;2023-04-19T10:10:44;102543.13;;;11.84;100.00
70370;BME280;57790;51.356;-2.906;2023-04-19T10:13:46;102550.50;;;11.80;100.00
70370;BME280;57790;51.356;-2.906;2023-04-19T10:16:48;102551.22;;;11.82;100.00
70370;BME280;57790;51.356;-2.906;2023-04-19T10:19:51;102544.09;;;11.83;100.00
70370;BME280;57790;51.356;-2.906;2023-04-19T10:22:55;102538.78;;;11.83;100.00
70370;BME280;57790;51.356;-2.906;2023-04-19T10:25:56;102536.47;;;11.89;100.00
70370;BME280;57790;51.356;-2.906;2023-04-19T10:28:57;102544.06;;;11.94;100.00
70370;BME280;57790;51.356;-2.906;2023-04-19T10:31:57;102544.06;;;11.94;100.00
70370;BME280;57790;51.356;-2.906;2023-04-19T10:35:04;102537.50;;;11.98;100.00
70370;BME280;57790;51.356;-2.906;2023-04-19T10:38:14;102541.13;;;11.97;100.00
70370;BME280;57790;51.356;-2.906;2023-04-19T10:41:16;102528.31;;;12.02;100.00
70370;BME280;57790;51.356;-2.906;2023-04-19T10:44:17;102522.16;;;12.02;100.00
70370;BME280;57790;51.356;-2.906;2023-04-19T10:47:44;102520.47;;;12.01;100.00
70370;BME280;57790;51.356;-2.906;2023-04-19T10:51:11;102505.56;;;12.09;100.00
70370;BME280;57790;51.356;-2.906;2023-04-19T10:54:32;102484.72;;;12.14;100.00
70370;BME280;57790;51.356;-2.906;2023-04-19T10:58:04;102490.56;;;12.29;100.00
70370;BME280;57790;51.356;-2.906;2023-04-19T11:07:49;102476.28;;;12.51;100.00
70370;BME280;57790;51.356;-2.906;2023-04-19T11:10:50;102483.50;;;12.70;100.00
70370;BME280;57790;51.356;-2.906;2023-04-19T11:13:50;102475.41;;;12.71;100.00
70370;BME280;57790;51.356;-2.906;2023-04-19T11:16:52;102495.91;;;12.80;100.00
70370;BME280;57790;51.356;-2.906;2023-04-19T11:19:53;102473.94;;;12.88;100.00
70370;BME280;57790;51.356;-2.906;2023-04-19T11:22:54;102473.94;;;12.88;100.00
70370;BME280;57790;51.356;-2.906;2023-04-19T11:26:00;102460.94;;;12.95;100.00
70370;BME280;57790;51.356;-2.906;2023-04-19T11:29:00;102481.66;;;13.01;100.00
70370;BME280;57790;51.356;-2.906;2023-04-19T11:32:01;102462.22;;;13.10;100.00
70370;BME280;57790;51.356;-2.906;2023-04-19T11:35:07;102456.34;;;13.16;100.00
70370;BME280;57790;51.356;-2.906;2023-04-19T11:38:11;102456.41;;;13.26;100.00
70370;BME280;57790;51.356;-2.906;2023-04-19T11:41:12;102453.75;;;13.35;100.00
70370;BME280;57790;51.356;-2.906;2023-04-19T11:44:16;102456.97;;;13.39;100.00
70370;BME280;57790;51.356;-2.906;2023-04-19T11:47:17;102443.97;;;13.46;100.00
70370;BME280;57790;51.356;-2.906;2023-04-19T11:50:36;102438.34;;;13.49;100.00
70370;BME280;57790;51.356;-2.906;2023-04-19T11:53:38;102443.69;;;13.49;100.00
70370;BME280;57790;51.356;-2.906;2023-04-19T11:57:05;102432.03;;;13.59;100.00
70370;BME280;57790;51.356;-2.906;2023-04-19T12:00:07;102434.56;;;13.61;100.00
70370;BME280;57790;51.356;-2.906;2023-04-19T12:03:11;102432.72;;;13.71;100.00
70370;BME280;57790;51.356;-2.906;2023-04-19T12:06:14;102427.53;;;13.79;100.00
70370;BME280;57790;51.356;-2.906;2023-04-19T12:09:19;102444.25;;;13.91;100.00
70370;BME280;57790;51.356;-2.906;2023-04-19T12:12:45;102429.75;;;14.03;100.00
70370;BME280;57790;51.356;-2.906;2023-04-19T12:15:46;102441.38;;;14.02;100.00
70370;BME280;57790;51.356;-2.906;2023-04-19T12:18:49;102427.94;;;14.04;100.00
70370;BME280;57790;51.356;-2.906;2023-04-19T12:21:50;102440.41;;;14.03;100.00
70370;BME280;57790;51.356;-2.906;2023-04-19T12:24:51;102438.72;;;14.12;100.00
70370;BME280;57790;51.356;-2.906;2023-04-19T12:27:52;102430.28;;;14.16;100.00
70370;BME280;57790;51.356;-2.906;2023-04-19T12:30:52;102433.38;;;14.21;100.00
70370;BME280;57790;51.356;-2.906;2023-04-19T12:33:53;102428.28;;;14.28;100.00
70370;BME280;57790;51.356;-2.906;2023-04-19T12:36:54;102431.63;;;14.30;100.00
70370;BME280;57790;51.356;-2.906;2023-04-19T12:39:54;102421.25;;;14.37;100.00
70370;BME280;57790;51.356;-2.906;2023-04-19T12:42:55;102428.81;;;14.41;100.00
70370;BME280;57790;51.356;-2.906;2023-04-19T12:45:55;102432.03;;;14.54;100.00
70370;BME280;57790;51.356;-2.906;2023-04-19T12:48:56;102427.22;;;14.58;100.00
70370;BME280;57790;51.356;-2.906;2023-04-19T12:51:56;102425.81;;;14.64;100.00
70370;BME280;57790;51.356;-2.906;2023-04-19T12:54:56;102432.91;;;14.73;100.00
70370;BME280;57790;51.356;-2.906;2023-04-19T12:57:57;102437.09;;;14.75;100.00
70370;BME280;57790;51.356;-2.906;2023-04-19T13:00:57;102437.91;;;14.85;100.00
70370;BME280;57790;51.356;-2.906;2023-04-19T13:03:58;102430.75;;;14.86;100.00
70370;BME280;57790;51.356;-2.906;2023-04-19T13:06:58;102436.00;;;14.78;100.00
70370;BME280;57790;51.356;-2.906;2023-04-19T13:09:58;102436.84;;;14.78;100.00
70370;BME280;57790;51.356;-2.906;2023-04-19T13:12:59;102439.75;;;14.85;100.00
70370;BME280;57790;51.356;-2.906;2023-04-19T13:15:59;102449.84;;;14.91;100.00
70370;BME280;57790;51.356;-2.906;2023-04-19T13:19:00;102439.78;;;15.03;100.00
70370;BME280;57790;51.356;-2.906;2023-04-19T13:22:01;102430.34;;;15.08;100.00
70370;BME280;57790;51.356;-2.906;2023-04-19T13:25:01;102434.91;;;14.98;100.00
70370;BME280;57790;51.356;-2.906;2023-04-19T13:28:01;102434.50;;;14.93;100.00
70370;BME280;57790;51.356;-2.906;2023-04-19T13:31:03;102428.03;;;14.96;100.00
70370;BME280;57790;51.356;-2.906;2023-04-19T13:34:04;102427.03;;;14.97;100.00
70370;BME280;57790;51.356;-2.906;2023-04-19T13:37:05;102440.09;;;15.00;100.00
70370;BME280;57790;51.356;-2.906;2023-04-19T13:40:06;102424.91;;;15.00;100.00
70370;BME280;57790;51.356;-2.906;2023-04-19T13:43:06;102423.84;;;14.93;100.00
70370;BME280;57790;51.356;-2.906;2023-04-19T13:46:06;102427.03;;;14.97;100.00
70370;BME280;57790;51.356;-2.906;2023-04-19T13:49:07;102426.50;;;14.93;100.00
70370;BME280;57790;51.356;-2.906;2023-04-19T13:52:08;102424.97;;;14.91;100.00
70370;BME280;57790;51.356;-2.906;2023-04-19T13:55:10;102426.66;;;14.92;100.00
70370;BME280;57790;51.356;-2.906;2023-04-19T13:58:10;102429.03;;;14.95;100.00
70370;BME280;57790;51.356;-2.906;2023-04-19T14:01:11;102423.13;;;14.91;100.00
70370;BME280;57790;51.356;-2.906;2023-04-19T14:04:11;102418.63;;;14.92;100.00
70370;BME280;57790;51.356;-2.906;2023-04-19T14:07:11;102424.81;;;14.92;100.00
70370;BME280;57790;51.356;-2.906;2023-04-19T14:10:12;102417.66;;;14.93;100.00
70370;BME280;57790;51.356;-2.906;2023-04-19T14:13:12;102413.97;;;14.94;100.00
70370;BME280;57790;51.356;-2.906;2023-04-19T14:16:13;102415.81;;;14.93;100.00
70370;BME280;57790;51.356;-2.906;2023-04-19T14:19:13;102426.19;;;14.96;100.00
70370;BME280;57790;51.356;-2.906;2023-04-19T14:22:15;102416.19;;;14.98;100.00
70370;BME280;57790;51.356;-2.906;2023-04-19T14:25:15;102422.38;;;14.99;100.00
70370;BME280;57790;51.356;-2.906;2023-04-19T14:28:17;102413.38;;;15.00;100.00
70370;BME280;57790;51.356;-2.906;2023-04-19T14:31:18;102412.22;;;15.02;100.00
70370;BME280;57790;51.356;-2.906;2023-04-19T14:34:18;102413.06;;;15.03;100.00
70370;BME280;57790;51.356;-2.906;2023-04-19T14:37:20;102409.28;;;15.05;100.00
70370;BME280;57790;51.356;-2.906;2023-04-19T14:40:22;102401.25;;;15.05;100.00
70370;BME280;57790;51.356;-2.906;2023-04-19T14:43:22;102413.63;;;15.06;100.00
70370;BME280;57790;51.356;-2.906;2023-04-19T14:46:23;102403.94;;;15.05;100.00
70370;BME280;57790;51.356;-2.906;2023-04-19T14:49:23;102402.63;;;15.09;100.00
70370;BME280;57790;51.356;-2.906;2023-04-19T14:52:24;102399.81;;;15.11;100.00
70370;BME280;57790;51.356;-2.906;2023-04-19T14:55:25;102396.31;;;15.10;100.00
70370;BME280;57790;51.356;-2.906;2023-04-19T14:58:26;102401.50;;;15.12;100.00
70370;BME280;57790;51.356;-2.906;2023-04-19T15:01:27;102391.63;;;15.12;100.00
70370;BME280;57790;51.356;-2.906;2023-04-19T15:04:27;102399.50;;;15.14;100.00
70370;BME280;57790;51.356;-2.906;2023-04-19T15:07:28;102389.22;;;15.19;100.00
70370;BME280;57790;51.356;-2.906;2023-04-19T15:10:28;102387.38;;;15.20;100.00
70370;BME280;57790;51.356;-2.906;2023-04-19T15:13:29;102380.34;;;15.18;100.00
70370;BME280;57790;51.356;-2.906;2023-04-19T15:16:29;102387.38;;;15.20;100.00
70370;BME280;57790;51.356;-2.906;2023-04-19T15:19:30;102377.22;;;15.23;100.00
70370;BME280;57790;51.356;-2.906;2023-04-19T15:22:31;102377.06;;;15.25;100.00
70370;BME280;57790;51.356;-2.906;2023-04-19T15:25:33;102370.72;;;15.26;100.00
70370;BME280;57790;51.356;-2.906;2023-04-19T15:28:34;102364.88;;;15.22;100.00
70370;BME280;57790;51.356;-2.906;2023-04-19T15:31:35;102367.22;;;15.25;100.00